North Bay Airport
CYYB : now visible

Airfield :











YOU CAN JOIN US ON...

 
LOGIN :

Register | Disclaimer

   EN    FR    IT 

 









Legend :    VFR   Marginal VFR   IFR   Intensive IFR   Very Intensive IFR
Visi :
Ceiling :
>= 8 km
>= 3000ft
5 to 8 km
1000 to 3000 ft
1500m to 5 km
500 to 1000 ft
800 to 1500m
200 to 500 ft
< 800m
< 200 ft
Symbols :   Thunderstorms  Fog  Heavy snow  Heavy precipitations  Wind > 20 kt






- Airport Elevation : 1215 ft
- IATA code : YYB


CYYB - North Bay

CURRENT METAR :
  • 160700Z AUTO 09015KT 5SM BR BKN010 OVC015 M01/M02 A2961 RMK SLP043

EXPIRED METARs :
  • 160640Z AUTO 10013G18KT 5SM BR BKN010 BKN015 BKN034 M01/M02 A2961 RMK SLP044
  • 160623Z AUTO 10012G18KT 4SM -SN SCT010 SCT015 OVC032 M01/M02 A2961 RMK SLP043
  • 160612Z AUTO 09013KT 3SM -SN FEW010 OVC026 M01/M02 A2961 RMK SLP045
  • 160546Z AUTO 10012G17KT 1 3/4SM -SN BKN020 OVC026 M01/M02 A2962 RMK SLP048
  • 160531Z AUTO 10012G17KT 3SM -SN OVC024 M01/M02 A2963 RMK SLP052
  • 160513Z AUTO 10011G17KT 2SM -SN BKN016 OVC026 M01/M02 A2963 RMK SLP053

TAF AMD TAF CYYB
Valid from the 16 at 06:00 until the 16 at 14:00 UTC


160605Z 1606/1614 10010G20KT 6SM -SN OVC020
TEMPO 1606/1614 11/2SM -SN OVC008
PROB30 1606/1614 1SM -SN RMK NXT FCST BY 160800Z
CZYZ FIR / North America



MET'MAP, your aeronautical weather chart ! - Copyright ORBIFLY December 2007 - Disclaimer

ORBIFLY MET'MAP TEAM :

Programming & Development : Alexandra Zaïnal
Concept & original design : Baudouin d'Aumeries
Assistance for programming : Marc-Olivier Méhu
Technical & hardware support : Manuel Goepfert

Contact : metmap@orbifly.com




SOURCES & CREDITS :

   NOAA       Earth
Advisory